sensor_id;sensor_type;location;lat;lon;timestamp;temperature;humidity
24217;DHT22;12356;49.386;8.688;2023-04-25T00:02:14;11.30;51.80
24217;DHT22;12356;49.386;8.688;2023-04-25T00:04:45;11.30;52.50
24217;DHT22;12356;49.386;8.688;2023-04-25T00:07:16;11.30;52.90
24217;DHT22;12356;49.386;8.688;2023-04-25T00:09:47;11.30;52.90
24217;DHT22;12356;49.386;8.688;2023-04-25T00:12:17;11.30;54.10
24217;DHT22;12356;49.386;8.688;2023-04-25T00:14:48;11.30;53.70
24217;DHT22;12356;49.386;8.688;2023-04-25T00:17:20;11.20;54.20
24217;DHT22;12356;49.386;8.688;2023-04-25T00:19:50;11.10;55.10
24217;DHT22;12356;49.386;8.688;2023-04-25T00:22:21;11.10;55.70
24217;DHT22;12356;49.386;8.688;2023-04-25T00:24:51;11.20;56.00
24217;DHT22;12356;49.386;8.688;2023-04-25T00:27:23;11.20;56.20
24217;DHT22;12356;49.386;8.688;2023-04-25T00:29:55;11.20;56.50
24217;DHT22;12356;49.386;8.688;2023-04-25T00:32:25;11.20;56.70
24217;DHT22;12356;49.386;8.688;2023-04-25T00:34:56;11.20;56.70
24217;DHT22;12356;49.386;8.688;2023-04-25T00:37:27;11.10;56.20
24217;DHT22;12356;49.386;8.688;2023-04-25T00:39:58;11.10;57.40
24217;DHT22;12356;49.386;8.688;2023-04-25T00:42:29;11.20;57.90
24217;DHT22;12356;49.386;8.688;2023-04-25T00:45:00;11.20;58.20
24217;DHT22;12356;49.386;8.688;2023-04-25T00:47:32;11.20;58.00
24217;DHT22;12356;49.386;8.688;2023-04-25T00:50:03;11.20;57.80
24217;DHT22;12356;49.386;8.688;2023-04-25T00:52:34;11.20;58.10
24217;DHT22;12356;49.386;8.688;2023-04-25T00:55:05;11.10;58.50
24217;DHT22;12356;49.386;8.688;2023-04-25T00:57:36;11.10;59.00
24217;DHT22;12356;49.386;8.688;2023-04-25T01:00:07;11.10;59.20
24217;DHT22;12356;49.386;8.688;2023-04-25T01:02:40;11.10;59.50
24217;DHT22;12356;49.386;8.688;2023-04-25T01:05:12;11.00;58.50
24217;DHT22;12356;49.386;8.688;2023-04-25T01:07:43;11.00;58.50
24217;DHT22;12356;49.386;8.688;2023-04-25T01:10:14;11.00;59.20
24217;DHT22;12356;49.386;8.688;2023-04-25T01:12:45;11.00;59.50
24217;DHT22;12356;49.386;8.688;2023-04-25T01:15:15;11.00;59.50
24217;DHT22;12356;49.386;8.688;2023-04-25T01:17:46;11.00;59.90
24217;DHT22;12356;49.386;8.688;2023-04-25T01:20:17;10.90;59.60
24217;DHT22;12356;49.386;8.688;2023-04-25T01:22:49;10.90;59.60
24217;DHT22;12356;49.386;8.688;2023-04-25T01:25:21;10.90;58.80
24217;DHT22;12356;49.386;8.688;2023-04-25T01:27:51;10.90;58.20
24217;DHT22;12356;49.386;8.688;2023-04-25T01:30:22;10.90;57.40
24217;DHT22;12356;49.386;8.688;2023-04-25T01:32:55;10.90;56.80
24217;DHT22;12356;49.386;8.688;2023-04-25T01:35:26;10.90;56.60
24217;DHT22;12356;49.386;8.688;2023-04-25T01:37:57;10.90;56.80
24217;DHT22;12356;49.386;8.688;2023-04-25T01:40:28;10.90;57.10
24217;DHT22;12356;49.386;8.688;2023-04-25T01:42:59;10.90;57.60
24217;DHT22;12356;49.386;8.688;2023-04-25T01:45:30;10.80;57.60
24217;DHT22;12356;49.386;8.688;2023-04-25T01:50:33;10.80;58.30
24217;DHT22;12356;49.386;8.688;2023-04-25T01:53:05;10.90;58.40
24217;DHT22;12356;49.386;8.688;2023-04-25T01:55:35;10.80;58.50
24217;DHT22;12356;49.386;8.688;2023-04-25T01:58:06;10.80;58.30
24217;DHT22;12356;49.386;8.688;2023-04-25T02:00:39;10.70;58.60
24217;DHT22;12356;49.386;8.688;2023-04-25T02:03:11;10.70;58.90
24217;DHT22;12356;49.386;8.688;2023-04-25T02:05:41;10.70;57.80
24217;DHT22;12356;49.386;8.688;2023-04-25T02:08:12;10.60;58.40
24217;DHT22;12356;49.386;8.688;2023-04-25T02:10:43;10.60;58.70
24217;DHT22;12356;49.386;8.688;2023-04-25T02:13:14;10.60;59.00
24217;DHT22;12356;49.386;8.688;2023-04-25T02:15:45;10.70;59.10
24217;DHT22;12356;49.386;8.688;2023-04-25T02:18:15;10.70;59.40
24217;DHT22;12356;49.386;8.688;2023-04-25T02:20:48;10.70;59.30
24217;DHT22;12356;49.386;8.688;2023-04-25T02:23:19;10.70;59.80
24217;DHT22;12356;49.386;8.688;2023-04-25T02:25:50;10.70;60.10
24217;DHT22;12356;49.386;8.688;2023-04-25T02:28:21;10.70;60.10
24217;DHT22;12356;49.386;8.688;2023-04-25T02:30:52;10.70;60.50
24217;DHT22;12356;49.386;8.688;2023-04-25T02:33:22;10.70;60.90
24217;DHT22;12356;49.386;8.688;2023-04-25T02:35:53;10.70;61.20
24217;DHT22;12356;49.386;8.688;2023-04-25T02:38:23;10.80;61.30
24217;DHT22;12356;49.386;8.688;2023-04-25T02:40:54;10.70;60.70
24217;DHT22;12356;49.386;8.688;2023-04-25T02:43:24;10.70;60.10
24217;DHT22;12356;49.386;8.688;2023-04-25T02:45:55;10.70;60.10
24217;DHT22;12356;49.386;8.688;2023-04-25T02:48:25;10.70;60.10
24217;DHT22;12356;49.386;8.688;2023-04-25T02:50:56;10.70;60.10
24217;DHT22;12356;49.386;8.688;2023-04-25T02:53:27;10.60;60.50
24217;DHT22;12356;49.386;8.688;2023-04-25T02:55:57;10.60;60.80
24217;DHT22;12356;49.386;8.688;2023-04-25T02:58:29;10.60;61.40
24217;DHT22;12356;49.386;8.688;2023-04-25T03:01:00;10.60;61.50
24217;DHT22;12356;49.386;8.688;2023-04-25T03:03:30;10.50;60.80
24217;DHT22;12356;49.386;8.688;2023-04-25T03:06:01;10.50;60.70
24217;DHT22;12356;49.386;8.688;2023-04-25T03:08:32;10.40;60.40
24217;DHT22;12356;49.386;8.688;2023-04-25T03:11:04;10.40;60.90
24217;DHT22;12356;49.386;8.688;2023-04-25T03:13:35;10.40;61.30
24217;DHT22;12356;49.386;8.688;2023-04-25T03:16:05;10.40;62.20
24217;DHT22;12356;49.386;8.688;2023-04-25T03:18:36;10.50;62.10
24217;DHT22;12356;49.386;8.688;2023-04-25T03:21:07;10.40;61.90
24217;DHT22;12356;49.386;8.688;2023-04-25T03:23:37;10.40;62.30
24217;DHT22;12356;49.386;8.688;2023-04-25T03:26:08;10.40;62.70
24217;DHT22;12356;49.386;8.688;2023-04-25T03:28:38;10.50;62.90
24217;DHT22;12356;49.386;8.688;2023-04-25T03:31:10;10.40;62.30
24217;DHT22;12356;49.386;8.688;2023-04-25T03:33:40;10.40;62.50
24217;DHT22;12356;49.386;8.688;2023-04-25T03:36:11;10.50;63.30
24217;DHT22;12356;49.386;8.688;2023-04-25T03:38:41;10.50;63.00
24217;DHT22;12356;49.386;8.688;2023-04-25T03:41:12;10.50;62.50
24217;DHT22;12356;49.386;8.688;2023-04-25T03:43:43;10.40;62.90
24217;DHT22;12356;49.386;8.688;2023-04-25T03:46:13;10.30;63.30
24217;DHT22;12356;49.386;8.688;2023-04-25T03:48:44;10.30;63.40
24217;DHT22;12356;49.386;8.688;2023-04-25T03:51:14;10.40;63.70
24217;DHT22;12356;49.386;8.688;2023-04-25T03:53:45;10.40;63.30
24217;DHT22;12356;49.386;8.688;2023-04-25T03:56:15;10.40;63.50
24217;DHT22;12356;49.386;8.688;2023-04-25T03:58:46;10.40;63.90
24217;DHT22;12356;49.386;8.688;2023-04-25T04:01:16;10.50;64.10
24217;DHT22;12356;49.386;8.688;2023-04-25T04:03:47;10.50;64.30
24217;DHT22;12356;49.386;8.688;2023-04-25T04:06:17;10.40;63.80
24217;DHT22;12356;49.386;8.688;2023-04-25T04:08:48;10.40;64.10
24217;DHT22;12356;49.386;8.688;2023-04-25T04:11:19;10.40;64.10
24217;DHT22;12356;49.386;8.688;2023-04-25T04:13:50;10.50;64.30
24217;DHT22;12356;49.386;8.688;2023-04-25T04:16:21;10.40;64.50
24217;DHT22;12356;49.386;8.688;2023-04-25T04:18:51;10.30;63.90
24217;DHT22;12356;49.386;8.688;2023-04-25T04:21:22;10.30;64.00
24217;DHT22;12356;49.386;8.688;2023-04-25T04:23:52;10.40;64.00
24217;DHT22;12356;49.386;8.688;2023-04-25T04:26:24;10.40;64.30
24217;DHT22;12356;49.386;8.688;2023-04-25T04:28:56;10.40;63.90
24217;DHT22;12356;49.386;8.688;2023-04-25T04:31:27;10.40;64.10
24217;DHT22;12356;49.386;8.688;2023-04-25T04:33:57;10.40;64.40
24217;DHT22;12356;49.386;8.688;2023-04-25T04:36:28;10.40;64.20
24217;DHT22;12356;49.386;8.688;2023-04-25T04:38:58;10.30;63.80
24217;DHT22;12356;49.386;8.688;2023-04-25T04:41:29;10.20;64.10
24217;DHT22;12356;49.386;8.688;2023-04-25T04:44:00;10.20;64.30
24217;DHT22;12356;49.386;8.688;2023-04-25T04:46:31;10.30;64.70
24217;DHT22;12356;49.386;8.688;2023-04-25T04:49:02;10.30;65.30
24217;DHT22;12356;49.386;8.688;2023-04-25T04:51:33;10.30;65.30
24217;DHT22;12356;49.386;8.688;2023-04-25T04:54:04;10.30;65.30
24217;DHT22;12356;49.386;8.688;2023-04-25T04:56:34;10.40;65.40
24217;DHT22;12356;49.386;8.688;2023-04-25T04:59:05;10.40;65.40
24217;DHT22;12356;49.386;8.688;2023-04-25T05:01:36;10.40;65.40
24217;DHT22;12356;49.386;8.688;2023-04-25T05:04:06;10.40;65.40
24217;DHT22;12356;49.386;8.688;2023-04-25T05:06:37;10.30;64.70
24217;DHT22;12356;49.386;8.688;2023-04-25T05:09:07;10.30;64.20
24217;DHT22;12356;49.386;8.688;2023-04-25T05:11:38;10.40;64.60
24217;DHT22;12356;49.386;8.688;2023-04-25T05:14:08;10.40;64.70
24217;DHT22;12356;49.386;8.688;2023-04-25T05:16:39;10.40;64.70
24217;DHT22;12356;49.386;8.688;2023-04-25T05:19:09;10.40;65.20
24217;DHT22;12356;49.386;8.688;2023-04-25T05:21:40;10.30;65.30
24217;DHT22;12356;49.386;8.688;2023-04-25T05:24:10;10.30;65.30
24217;DHT22;12356;49.386;8.688;2023-04-25T05:26:41;10.30;65.80
24217;DHT22;12356;49.386;8.688;2023-04-25T05:29:11;10.40;66.10
24217;DHT22;12356;49.386;8.688;2023-04-25T05:31:42;10.40;65.70
24217;DHT22;12356;49.386;8.688;2023-04-25T05:34:13;10.50;65.70
24217;DHT22;12356;49.386;8.688;2023-04-25T05:36:43;10.40;64.00
24217;DHT22;12356;49.386;8.688;2023-04-25T05:39:17;10.40;63.90
24217;DHT22;12356;49.386;8.688;2023-04-25T05:41:48;10.30;63.60
24217;DHT22;12356;49.386;8.688;2023-04-25T05:44:19;10.40;63.70
24217;DHT22;12356;49.386;8.688;2023-04-25T05:46:50;10.40;63.80
24217;DHT22;12356;49.386;8.688;2023-04-25T05:49:20;10.40;63.80
24217;DHT22;12356;49.386;8.688;2023-04-25T05:51:51;10.40;64.00
24217;DHT22;12356;49.386;8.688;2023-04-25T05:54:22;10.50;64.40
24217;DHT22;12356;49.386;8.688;2023-04-25T05:56:52;10.50;64.30
24217;DHT22;12356;49.386;8.688;2023-04-25T05:59:23;10.50;64.00
24217;DHT22;12356;49.386;8.688;2023-04-25T06:01:53;10.60;64.10
24217;DHT22;12356;49.386;8.688;2023-04-25T06:04:25;10.60;64.20
24217;DHT22;12356;49.386;8.688;2023-04-25T06:06:55;10.60;64.10
24217;DHT22;12356;49.386;8.688;2023-04-25T06:09:26;10.60;64.20
24217;DHT22;12356;49.386;8.688;2023-04-25T06:11:56;10.60;64.60
24217;DHT22;12356;49.386;8.688;2023-04-25T06:14:27;10.60;64.80
24217;DHT22;12356;49.386;8.688;2023-04-25T06:16:58;10.60;65.60
24217;DHT22;12356;49.386;8.688;2023-04-25T06:19:28;10.60;65.60
24217;DHT22;12356;49.386;8.688;2023-04-25T06:21:59;10.60;64.70
24217;DHT22;12356;49.386;8.688;2023-04-25T06:24:29;10.70;64.40
24217;DHT22;12356;49.386;8.688;2023-04-25T06:27:00;10.80;64.40
24217;DHT22;12356;49.386;8.688;2023-04-25T06:29:30;10.70;63.50
24217;DHT22;12356;49.386;8.688;2023-04-25T06:32:01;10.80;62.70
24217;DHT22;12356;49.386;8.688;2023-04-25T06:34:31;10.70;62.90
24217;DHT22;12356;49.386;8.688;2023-04-25T06:37:02;10.80;62.80
24217;DHT22;12356;49.386;8.688;2023-04-25T06:39:33;10.80;63.50
24217;DHT22;12356;49.386;8.688;2023-04-25T06:42:03;10.80;64.50
24217;DHT22;12356;49.386;8.688;2023-04-25T06:44:34;10.80;64.20
24217;DHT22;12356;49.386;8.688;2023-04-25T06:47:04;10.80;62.50
24217;DHT22;12356;49.386;8.688;2023-04-25T06:49:35;10.80;62.60
24217;DHT22;12356;49.386;8.688;2023-04-25T06:52:07;10.80;62.80
24217;DHT22;12356;49.386;8.688;2023-04-25T06:54:37;10.80;62.60
24217;DHT22;12356;49.386;8.688;2023-04-25T06:57:08;10.80;63.20
24217;DHT22;12356;49.386;8.688;2023-04-25T06:59:39;10.80;62.90
24217;DHT22;12356;49.386;8.688;2023-04-25T07:02:09;10.90;63.20
24217;DHT22;12356;49.386;8.688;2023-04-25T07:04:40;10.80;60.20
24217;DHT22;12356;49.386;8.688;2023-04-25T07:07:10;10.80;60.60
24217;DHT22;12356;49.386;8.688;2023-04-25T07:09:41;10.80;60.90
24217;DHT22;12356;49.386;8.688;2023-04-25T07:12:11;10.80;59.90
24217;DHT22;12356;49.386;8.688;2023-04-25T07:14:42;10.70;60.00
24217;DHT22;12356;49.386;8.688;2023-04-25T07:17:12;10.70;59.80
24217;DHT22;12356;49.386;8.688;2023-04-25T07:19:43;10.60;59.30
24217;DHT22;12356;49.386;8.688;2023-04-25T07:22:13;10.60;56.60
24217;DHT22;12356;49.386;8.688;2023-04-25T07:24:44;10.40;55.10
24217;DHT22;12356;49.386;8.688;2023-04-25T07:27:19;10.30;55.60
24217;DHT22;12356;49.386;8.688;2023-04-25T07:29:49;10.40;57.90
24217;DHT22;12356;49.386;8.688;2023-04-25T07:32:20;10.40;54.90
24217;DHT22;12356;49.386;8.688;2023-04-25T07:34:50;10.30;49.60
24217;DHT22;12356;49.386;8.688;2023-04-25T07:37:21;10.30;50.90
24217;DHT22;12356;49.386;8.688;2023-04-25T07:39:52;10.40;50.30
24217;DHT22;12356;49.386;8.688;2023-04-25T07:42:22;10.30;48.00
24217;DHT22;12356;49.386;8.688;2023-04-25T07:44:52;10.30;50.90
24217;DHT22;12356;49.386;8.688;2023-04-25T07:47:23;10.40;49.20
24217;DHT22;12356;49.386;8.688;2023-04-25T07:49:54;10.40;50.00
24217;DHT22;12356;49.386;8.688;2023-04-25T07:52:25;10.50;50.30
24217;DHT22;12356;49.386;8.688;2023-04-25T07:54:55;10.50;48.90
24217;DHT22;12356;49.386;8.688;2023-04-25T07:57:26;10.50;51.00
24217;DHT22;12356;49.386;8.688;2023-04-25T07:59:57;10.50;50.20
24217;DHT22;12356;49.386;8.688;2023-04-25T08:02:27;10.50;45.90
24217;DHT22;12356;49.386;8.688;2023-04-25T08:04:58;10.50;45.90
24217;DHT22;12356;49.386;8.688;2023-04-25T08:07:29;10.50;45.30
24217;DHT22;12356;49.386;8.688;2023-04-25T08:09:59;10.50;45.70
24217;DHT22;12356;49.386;8.688;2023-04-25T08:12:30;10.50;39.30
24217;DHT22;12356;49.386;8.688;2023-04-25T08:15:01;10.50;42.00
24217;DHT22;12356;49.386;8.688;2023-04-25T08:17:31;10.40;41.60
24217;DHT22;12356;49.386;8.688;2023-04-25T08:20:02;10.40;42.70
24217;DHT22;12356;49.386;8.688;2023-04-25T08:22:36;10.40;44.70
24217;DHT22;12356;49.386;8.688;2023-04-25T08:25:06;10.50;43.30
24217;DHT22;12356;49.386;8.688;2023-04-25T08:27:37;10.40;42.80
24217;DHT22;12356;49.386;8.688;2023-04-25T08:30:09;10.50;42.90
24217;DHT22;12356;49.386;8.688;2023-04-25T08:32:40;10.50;42.50
24217;DHT22;12356;49.386;8.688;2023-04-25T08:35:11;10.40;38.30
24217;DHT22;12356;49.386;8.688;2023-04-25T08:37:42;10.50;38.50
24217;DHT22;12356;49.386;8.688;2023-04-25T08:40:14;10.60;40.50
24217;DHT22;12356;49.386;8.688;2023-04-25T08:42:45;10.60;41.20
24217;DHT22;12356;49.386;8.688;2023-04-25T08:45:17;10.60;36.70
24217;DHT22;12356;49.386;8.688;2023-04-25T08:47:48;10.60;35.40
24217;DHT22;12356;49.386;8.688;2023-04-25T08:50:22;10.50;37.70
24217;DHT22;12356;49.386;8.688;2023-04-25T08:52:54;10.50;33.70
24217;DHT22;12356;49.386;8.688;2023-04-25T08:55:25;10.50;35.30
24217;DHT22;12356;49.386;8.688;2023-04-25T08:57:57;10.60;34.70
24217;DHT22;12356;49.386;8.688;2023-04-25T09:00:30;10.70;32.30
24217;DHT22;12356;49.386;8.688;2023-04-25T09:03:02;10.60;30.90
24217;DHT22;12356;49.386;8.688;2023-04-25T09:05:33;10.70;31.10
24217;DHT22;12356;49.386;8.688;2023-04-25T09:08:06;10.60;28.70
24217;DHT22;12356;49.386;8.688;2023-04-25T09:10:40;10.60;27.50
24217;DHT22;12356;49.386;8.688;2023-04-25T09:13:13;10.60;27.50
24217;DHT22;12356;49.386;8.688;2023-04-25T09:15:55;10.60;26.10
24217;DHT22;12356;49.386;8.688;2023-04-25T09:18:31;10.60;26.80
24217;DHT22;12356;49.386;8.688;2023-04-25T09:21:11;10.60;25.20
24217;DHT22;12356;49.386;8.688;2023-04-25T09:23:47;10.60;25.10
24217;DHT22;12356;49.386;8.688;2023-04-25T09:26:19;10.60;26.50
24217;DHT22;12356;49.386;8.688;2023-04-25T09:29:05;10.70;28.40
24217;DHT22;12356;49.386;8.688;2023-04-25T09:31:36;10.80;25.00
24217;DHT22;12356;49.386;8.688;2023-04-25T09:34:07;10.90;25.10
24217;DHT22;12356;49.386;8.688;2023-04-25T09:36:42;11.00;24.10
24217;DHT22;12356;49.386;8.688;2023-04-25T09:39:13;11.10;24.20
24217;DHT22;12356;49.386;8.688;2023-04-25T09:41:45;11.20;24.00
24217;DHT22;12356;49.386;8.688;2023-04-25T09:44:23;11.20;23.40
24217;DHT22;12356;49.386;8.688;2023-04-25T09:46:54;11.30;21.90
24217;DHT22;12356;49.386;8.688;2023-04-25T09:49:26;11.30;21.10
24217;DHT22;12356;49.386;8.688;2023-04-25T09:51:58;11.40;22.20
24217;DHT22;12356;49.386;8.688;2023-04-25T09:54:29;11.30;22.30
24217;DHT22;12356;49.386;8.688;2023-04-25T09:57:23;11.40;21.70
24217;DHT22;12356;49.386;8.688;2023-04-25T09:59:55;11.40;19.50
24217;DHT22;12356;49.386;8.688;2023-04-25T10:02:27;11.40;20.00
24217;DHT22;12356;49.386;8.688;2023-04-25T10:04:59;11.30;20.40
24217;DHT22;12356;49.386;8.688;2023-04-25T10:07:31;11.40;18.50
24217;DHT22;12356;49.386;8.688;2023-04-25T10:10:04;11.40;18.90
24217;DHT22;12356;49.386;8.688;2023-04-25T10:12:36;11.40;16.60
24217;DHT22;12356;49.386;8.688;2023-04-25T10:15:08;11.30;16.60
24217;DHT22;12356;49.386;8.688;2023-04-25T10:17:39;11.40;16.60
24217;DHT22;12356;49.386;8.688;2023-04-25T10:20:10;11.40;14.40
24217;DHT22;12356;49.386;8.688;2023-04-25T10:22:43;11.40;15.50
24217;DHT22;12356;49.386;8.688;2023-04-25T10:25:14;11.50;17.90
24217;DHT22;12356;49.386;8.688;2023-04-25T10:27:45;11.50;17.70
24217;DHT22;12356;49.386;8.688;2023-04-25T10:30:16;11.50;18.80
24217;DHT22;12356;49.386;8.688;2023-04-25T10:32:46;11.60;18.30
24217;DHT22;12356;49.386;8.688;2023-04-25T10:35:29;11.70;19.30
24217;DHT22;12356;49.386;8.688;2023-04-25T10:38:10;11.70;18.10
24217;DHT22;12356;49.386;8.688;2023-04-25T10:40:41;11.70;19.00
24217;DHT22;12356;49.386;8.688;2023-04-25T10:46:01;11.70;16.80
24217;DHT22;12356;49.386;8.688;2023-04-25T10:48:32;11.80;18.90
24217;DHT22;12356;49.386;8.688;2023-04-25T10:53:39;11.90;18.80
24217;DHT22;12356;49.386;8.688;2023-04-25T10:56:19;12.00;19.60
24217;DHT22;12356;49.386;8.688;2023-04-25T10:59:06;12.00;16.90
24217;DHT22;12356;49.386;8.688;2023-04-25T11:02:02;12.00;16.70
24217;DHT22;12356;49.386;8.688;2023-04-25T11:04:33;12.00;15.40
24217;DHT22;12356;49.386;8.688;2023-04-25T11:10:01;11.90;16.00
24217;DHT22;12356;49.386;8.688;2023-04-25T11:12:33;11.80;17.10
24217;DHT22;12356;49.386;8.688;2023-04-25T11:15:07;11.70;15.90
24217;DHT22;12356;49.386;8.688;2023-04-25T11:17:39;11.70;16.80
24217;DHT22;12356;49.386;8.688;2023-04-25T11:20:10;11.60;17.60
24217;DHT22;12356;49.386;8.688;2023-04-25T11:22:42;11.60;19.00
24217;DHT22;12356;49.386;8.688;2023-04-25T11:25:15;11.60;19.20
24217;DHT22;12356;49.386;8.688;2023-04-25T11:27:57;11.60;18.00
24217;DHT22;12356;49.386;8.688;2023-04-25T11:30:28;11.70;19.10
24217;DHT22;12356;49.386;8.688;2023-04-25T11:33:00;11.80;19.20
24217;DHT22;12356;49.386;8.688;2023-04-25T11:35:33;11.80;19.30
24217;DHT22;12356;49.386;8.688;2023-04-25T11:38:04;11.80;19.20
24217;DHT22;12356;49.386;8.688;2023-04-25T11:40:38;11.80;19.70
24217;DHT22;12356;49.386;8.688;2023-04-25T11:43:09;11.70;18.40
24217;DHT22;12356;49.386;8.688;2023-04-25T11:45:39;11.70;17.40
24217;DHT22;12356;49.386;8.688;2023-04-25T11:48:10;11.80;17.40
24217;DHT22;12356;49.386;8.688;2023-04-25T11:50:41;11.80;16.90
24217;DHT22;12356;49.386;8.688;2023-04-25T11:53:12;11.70;17.50
24217;DHT22;12356;49.386;8.688;2023-04-25T11:55:43;11.70;16.40
24217;DHT22;12356;49.386;8.688;2023-04-25T11:58:14;11.70;15.50
24217;DHT22;12356;49.386;8.688;2023-04-25T12:00:44;11.70;14.90
24217;DHT22;12356;49.386;8.688;2023-04-25T12:03:15;11.80;14.90
24217;DHT22;12356;49.386;8.688;2023-04-25T12:05:46;11.90;15.10
24217;DHT22;12356;49.386;8.688;2023-04-25T12:08:16;11.90;15.60
24217;DHT22;12356;49.386;8.688;2023-04-25T12:10:47;12.00;13.90
24217;DHT22;12356;49.386;8.688;2023-04-25T12:13:24;12.10;14.70
24217;DHT22;12356;49.386;8.688;2023-04-25T12:15:55;12.10;13.90
24217;DHT22;12356;49.386;8.688;2023-04-25T12:18:26;12.20;13.90
24217;DHT22;12356;49.386;8.688;2023-04-25T12:20:58;12.20;13.90
24217;DHT22;12356;49.386;8.688;2023-04-25T12:23:29;12.20;14.20
24217;DHT22;12356;49.386;8.688;2023-04-25T12:26:00;12.30;15.30
24217;DHT22;12356;49.386;8.688;2023-04-25T12:28:33;12.40;14.00
24217;DHT22;12356;49.386;8.688;2023-04-25T12:31:05;12.30;14.40
24217;DHT22;12356;49.386;8.688;2023-04-25T12:33:37;12.30;15.20
24217;DHT22;12356;49.386;8.688;2023-04-25T12:36:10;12.30;14.60
24217;DHT22;12356;49.386;8.688;2023-04-25T12:38:43;12.30;14.60
24217;DHT22;12356;49.386;8.688;2023-04-25T12:41:14;12.20;14.30
24217;DHT22;12356;49.386;8.688;2023-04-25T12:43:45;12.20;14.20
24217;DHT22;12356;49.386;8.688;2023-04-25T12:46:15;12.10;13.50
24217;DHT22;12356;49.386;8.688;2023-04-25T12:48:46;12.00;14.50
24217;DHT22;12356;49.386;8.688;2023-04-25T12:51:16;12.00;15.00
24217;DHT22;12356;49.386;8.688;2023-04-25T12:53:47;12.00;14.70
24217;DHT22;12356;49.386;8.688;2023-04-25T12:56:18;12.00;14.10
24217;DHT22;12356;49.386;8.688;2023-04-25T12:58:49;12.00;14.20
24217;DHT22;12356;49.386;8.688;2023-04-25T13:01:21;12.10;14.50
24217;DHT22;12356;49.386;8.688;2023-04-25T13:03:52;12.10;15.40
24217;DHT22;12356;49.386;8.688;2023-04-25T13:06:23;12.20;15.40
24217;DHT22;12356;49.386;8.688;2023-04-25T13:08:53;12.30;15.40
24217;DHT22;12356;49.386;8.688;2023-04-25T13:11:24;12.40;15.30
24217;DHT22;12356;49.386;8.688;2023-04-25T13:13:55;12.50;14.90
24217;DHT22;12356;49.386;8.688;2023-04-25T13:16:26;12.50;14.90
24217;DHT22;12356;49.386;8.688;2023-04-25T13:18:58;12.60;13.20
24217;DHT22;12356;49.386;8.688;2023-04-25T13:21:30;12.50;12.60
24217;DHT22;12356;49.386;8.688;2023-04-25T13:24:02;12.40;12.70
24217;DHT22;12356;49.386;8.688;2023-04-25T13:26:33;12.30;11.40
24217;DHT22;12356;49.386;8.688;2023-04-25T13:29:04;12.20;12.20
24217;DHT22;12356;49.386;8.688;2023-04-25T13:31:34;12.30;12.90
24217;DHT22;12356;49.386;8.688;2023-04-25T13:34:05;12.20;11.90
24217;DHT22;12356;49.386;8.688;2023-04-25T13:36:36;12.20;11.20
24217;DHT22;12356;49.386;8.688;2023-04-25T13:39:06;12.30;11.60
24217;DHT22;12356;49.386;8.688;2023-04-25T13:41:37;12.40;12.90
24217;DHT22;12356;49.386;8.688;2023-04-25T13:44:07;12.40;13.20
24217;DHT22;12356;49.386;8.688;2023-04-25T13:46:38;12.40;12.10
24217;DHT22;12356;49.386;8.688;2023-04-25T13:49:08;12.50;12.80
24217;DHT22;12356;49.386;8.688;2023-04-25T13:51:40;12.50;11.50
24217;DHT22;12356;49.386;8.688;2023-04-25T13:54:12;12.50;11.10
24217;DHT22;12356;49.386;8.688;2023-04-25T13:56:43;12.50;10.00
24217;DHT22;12356;49.386;8.688;2023-04-25T13:59:13;12.40;10.70
24217;DHT22;12356;49.386;8.688;2023-04-25T14:01:44;12.50;11.50
24217;DHT22;12356;49.386;8.688;2023-04-25T14:04:15;12.50;11.30
24217;DHT22;12356;49.386;8.688;2023-04-25T14:06:45;12.50;11.00
24217;DHT22;12356;49.386;8.688;2023-04-25T14:09:16;12.50;11.30
24217;DHT22;12356;49.386;8.688;2023-04-25T14:11:47;12.50;11.60
24217;DHT22;12356;49.386;8.688;2023-04-25T14:14:17;12.40;11.20
24217;DHT22;12356;49.386;8.688;2023-04-25T14:16:48;12.40;11.20
24217;DHT22;12356;49.386;8.688;2023-04-25T14:19:20;12.40;11.10
24217;DHT22;12356;49.386;8.688;2023-04-25T14:21:51;12.40;10.10
24217;DHT22;12356;49.386;8.688;2023-04-25T14:24:22;12.40;10.60
24217;DHT22;12356;49.386;8.688;2023-04-25T14:26:53;12.40;11.10
24217;DHT22;12356;49.386;8.688;2023-04-25T14:29:23;12.40;10.60
24217;DHT22;12356;49.386;8.688;2023-04-25T14:31:54;12.40;10.00
24217;DHT22;12356;49.386;8.688;2023-04-25T14:34:25;12.40;10.20
24217;DHT22;12356;49.386;8.688;2023-04-25T14:36:55;12.40;10.70
24217;DHT22;12356;49.386;8.688;2023-04-25T14:39:26;12.40;11.60
24217;DHT22;12356;49.386;8.688;2023-04-25T14:41:56;12.50;11.60
24217;DHT22;12356;49.386;8.688;2023-04-25T14:44:28;12.50;9.40
24217;DHT22;12356;49.386;8.688;2023-04-25T14:46:58;12.40;9.40
24217;DHT22;12356;49.386;8.688;2023-04-25T14:49:29;12.40;9.70
24217;DHT22;12356;49.386;8.688;2023-04-25T14:51:59;12.40;9.30
24217;DHT22;12356;49.386;8.688;2023-04-25T14:54:31;12.40;9.70
24217;DHT22;12356;49.386;8.688;2023-04-25T14:57:02;12.50;9.20
24217;DHT22;12356;49.386;8.688;2023-04-25T14:59:33;12.40;8.50
24217;DHT22;12356;49.386;8.688;2023-04-25T15:02:03;12.40;8.90
24217;DHT22;12356;49.386;8.688;2023-04-25T15:04:34;12.30;8.30
24217;DHT22;12356;49.386;8.688;2023-04-25T15:07:05;12.30;8.60
24217;DHT22;12356;49.386;8.688;2023-04-25T15:09:36;12.30;8.60
24217;DHT22;12356;49.386;8.688;2023-04-25T15:12:07;12.30;8.90
24217;DHT22;12356;49.386;8.688;2023-04-25T15:14:37;12.30;8.70
24217;DHT22;12356;49.386;8.688;2023-04-25T15:17:08;12.20;9.10
24217;DHT22;12356;49.386;8.688;2023-04-25T15:19:39;12.30;9.60
24217;DHT22;12356;49.386;8.688;2023-04-25T15:22:10;12.30;10.20
24217;DHT22;12356;49.386;8.688;2023-04-25T15:24:40;12.30;9.80
24217;DHT22;12356;49.386;8.688;2023-04-25T15:27:12;12.30;9.90
24217;DHT22;12356;49.386;8.688;2023-04-25T15:29:43;12.30;11.00
24217;DHT22;12356;49.386;8.688;2023-04-25T15:32:13;12.30;9.30
24217;DHT22;12356;49.386;8.688;2023-04-25T15:34:44;12.20;8.80
24217;DHT22;12356;49.386;8.688;2023-04-25T15:37:14;12.30;7.90
24217;DHT22;12356;49.386;8.688;2023-04-25T15:39:45;12.30;7.20
24217;DHT22;12356;49.386;8.688;2023-04-25T15:42:16;12.20;6.90
24217;DHT22;12356;49.386;8.688;2023-04-25T15:44:46;12.20;7.30
24217;DHT22;12356;49.386;8.688;2023-04-25T15:47:17;12.30;7.90
24217;DHT22;12356;49.386;8.688;2023-04-25T15:49:47;12.40;7.90
24217;DHT22;12356;49.386;8.688;2023-04-25T15:52:18;12.30;6.40
24217;DHT22;12356;49.386;8.688;2023-04-25T15:54:51;12.40;6.60
24217;DHT22;12356;49.386;8.688;2023-04-25T15:57:22;12.30;6.20
24217;DHT22;12356;49.386;8.688;2023-04-25T15:59:53;12.30;6.30
24217;DHT22;12356;49.386;8.688;2023-04-25T16:02:23;12.20;6.60
24217;DHT22;12356;49.386;8.688;2023-04-25T16:04:54;12.20;6.20
24217;DHT22;12356;49.386;8.688;2023-04-25T16:07:25;12.30;7.40
24217;DHT22;12356;49.386;8.688;2023-04-25T16:09:55;12.20;7.30